createdAt,value
2023-03-11T00:02:47.627Z,0.53
2023-03-11T00:05:52.596Z,0.93
2023-03-11T00:08:55.126Z,0.83
2023-03-11T00:11:57.756Z,1.17
2023-03-11T00:15:00.491Z,0.50
2023-03-11T00:18:03.582Z,0.70
2023-03-11T00:21:16.248Z,2.55
2023-03-11T00:24:18.927Z,1.03
2023-03-11T00:27:21.463Z,1.00
2023-03-11T00:30:24.837Z,0.77
2023-03-11T00:33:27.399Z,0.40
2023-03-11T00:36:33.994Z,0.60
2023-03-11T00:39:36.586Z,2.57
2023-03-11T00:42:39.142Z,0.90
2023-03-11T00:45:42.015Z,1.33
2023-03-11T00:48:44.543Z,0.50
2023-03-11T00:51:48.665Z,0.97
2023-03-11T00:54:51.154Z,0.80
2023-03-11T00:57:54.949Z,1.70
2023-03-11T01:04:00.032Z,0.70
2023-03-11T01:07:03.988Z,1.77
2023-03-11T01:10:08.598Z,1.60
2023-03-11T01:13:11.190Z,1.23
2023-03-11T01:16:13.759Z,1.87
2023-03-11T01:19:16.447Z,1.10
2023-03-11T01:22:20.332Z,2.33
2023-03-11T01:28:25.594Z,0.93
2023-03-11T01:31:28.231Z,1.30
2023-03-11T01:34:30.858Z,0.83
2023-03-11T01:37:34.699Z,4.07
2023-03-11T01:43:48.547Z,0.93
2023-03-11T01:47:28.796Z,0.60
2023-03-11T01:50:35.358Z,0.53
2023-03-11T01:53:39.269Z,0.73
2023-03-11T01:59:46.286Z,0.73
2023-03-11T02:02:52.327Z,2.80
2023-03-11T02:05:55.249Z,3.90
2023-03-11T02:09:01.029Z,2.47
2023-03-11T02:12:04.526Z,3.27
2023-03-11T02:15:08.493Z,1.02
2023-03-11T02:18:14.610Z,2.57
2023-03-11T02:21:24.278Z,2.93
2023-03-11T02:24:32.312Z,1.70
2023-03-11T02:27:39.454Z,1.90
2023-03-11T02:30:43.545Z,1.80
2023-03-11T02:33:47.070Z,1.33
2023-03-11T02:36:49.595Z,3.63
2023-03-11T02:39:53.996Z,2.13
2023-03-11T02:42:59.844Z,2.33
2023-03-11T02:46:02.935Z,1.13
2023-03-11T02:49:05.960Z,1.05
2023-03-11T02:52:08.474Z,1.10
2023-03-11T02:55:12.629Z,1.63
2023-03-11T02:58:16.493Z,2.43
2023-03-11T03:04:21.801Z,0.93
2023-03-11T03:07:24.468Z,2.47
2023-03-11T03:10:27.031Z,1.67
2023-03-11T03:13:32.326Z,1.43
2023-03-11T03:16:34.910Z,0.80
2023-03-11T03:19:37.504Z,0.73
2023-03-11T03:22:40.829Z,1.33
2023-03-11T03:25:43.754Z,2.05
2023-03-11T03:28:47.663Z,1.20
2023-03-11T03:34:58.194Z,3.30
2023-03-11T03:38:01.057Z,3.40
2023-03-11T03:41:03.841Z,2.23
2023-03-11T03:44:07.757Z,0.57
2023-03-11T03:50:13.743Z,3.77
2023-03-11T03:53:16.320Z,0.93
2023-03-11T03:56:19.373Z,2.37
2023-03-11T03:59:23.177Z,1.02
2023-03-11T04:02:25.716Z,1.70
2023-03-11T04:05:28.704Z,5.90
2023-03-11T04:08:31.196Z,0.63
2023-03-11T04:11:34.208Z,1.67
2023-03-11T04:14:38.051Z,2.72
2023-03-11T04:20:42.919Z,2.33
2023-03-11T04:23:45.511Z,1.80
2023-03-11T04:26:48.052Z,1.83
2023-03-11T04:29:51.951Z,3.40
2023-03-11T04:35:56.790Z,1.33
2023-03-11T04:38:59.362Z,4.20
2023-03-11T04:42:03.988Z,1.47
2023-03-11T04:45:10.913Z,1.10
2023-03-11T04:48:13.464Z,3.23
2023-03-11T04:51:15.934Z,6.53
2023-03-11T04:54:18.463Z,5.67
2023-03-11T04:57:21.587Z,1.07
2023-03-11T05:00:25.602Z,2.90
2023-03-11T05:03:28.206Z,3.03
2023-03-11T05:06:30.776Z,0.90
2023-03-11T05:09:33.298Z,1.83
2023-03-11T05:12:35.847Z,2.17
2023-03-11T05:15:39.722Z,2.97
2023-03-11T05:21:44.657Z,1.37
2023-03-11T05:24:47.958Z,2.00
2023-03-11T05:27:50.480Z,2.42
2023-03-11T05:30:54.595Z,8.30
2023-03-11T05:33:57.116Z,3.20
2023-03-11T05:37:03.203Z,0.97
2023-03-11T05:40:07.851Z,4.33
2023-03-11T05:43:10.338Z,0.60
2023-03-11T05:46:14.202Z,0.70
2023-03-11T05:52:19.043Z,3.40
2023-03-11T05:55:21.502Z,1.53
2023-03-11T05:58:24.038Z,2.27
2023-03-11T06:01:27.859Z,3.83
2023-03-11T06:07:32.935Z,6.93
2023-03-11T06:10:35.513Z,2.03
2023-03-11T06:13:38.571Z,3.93
2023-03-11T06:16:42.728Z,1.05
2023-03-11T06:19:45.240Z,2.17
2023-03-11T06:22:49.709Z,4.57
2023-03-11T06:25:56.733Z,3.90
2023-03-11T06:28:59.270Z,3.30
2023-03-11T06:32:03.170Z,1.63
2023-03-11T06:38:08.418Z,8.67
2023-03-11T06:41:11.516Z,5.30
2023-03-11T06:44:14.126Z,2.25
2023-03-11T06:47:18.043Z,5.90
2023-03-11T06:53:23.196Z,5.83
2023-03-11T06:56:26.110Z,5.13
2023-03-11T06:59:28.785Z,5.13
2023-03-11T07:02:32.743Z,3.63
2023-03-11T07:05:35.250Z,5.40
2023-03-11T07:08:37.772Z,4.67
2023-03-11T07:11:40.422Z,5.70
2023-03-11T07:14:42.998Z,3.17
2023-03-11T07:17:46.955Z,0.67
2023-03-11T07:23:53.714Z,7.73
2023-03-11T07:26:56.305Z,5.80
2023-03-11T07:29:58.779Z,3.93
2023-03-11T07:33:02.912Z,2.47
2023-03-11T07:36:09.813Z,7.17
2023-03-11T07:39:15.516Z,1.40
2023-03-11T07:42:18.073Z,1.67
2023-03-11T07:45:20.785Z,3.77
2023-03-11T07:48:24.685Z,6.73
2023-03-11T07:54:30.665Z,4.13
2023-03-11T07:57:33.212Z,5.77
2023-03-11T08:00:35.745Z,3.23
2023-03-11T08:03:40.309Z,4.60
2023-03-11T08:06:44.207Z,1.70
2023-03-11T08:12:49.439Z,17.83
2023-03-11T08:15:52.030Z,6.70
2023-03-11T08:18:56.552Z,3.17
2023-03-11T08:21:59.041Z,2.80
2023-03-11T08:25:01.537Z,1.00
2023-03-11T08:28:04.115Z,3.70
2023-03-11T08:31:13.382Z,5.93
2023-03-11T08:34:17.830Z,3.90
2023-03-11T08:37:22.192Z,11.50
2023-03-11T08:40:25.898Z,4.60
2023-03-11T08:43:28.432Z,13.30
2023-03-11T08:46:33.626Z,4.00
2023-03-11T08:49:38.520Z,4.03
2023-03-11T08:52:40.990Z,6.80
2023-03-11T08:55:43.572Z,4.90
2023-03-11T08:58:47.262Z,4.57
2023-03-11T09:01:49.872Z,2.53
2023-03-11T09:04:53.809Z,2.97
2023-03-11T09:10:58.881Z,2.90
2023-03-11T09:14:01.401Z,5.80
2023-03-11T09:17:03.965Z,3.17
2023-03-11T09:20:09.476Z,9.17
2023-03-11T09:23:15.256Z,1.60
2023-03-11T09:26:17.758Z,5.57
2023-03-11T09:29:20.395Z,8.90
2023-03-11T09:32:22.973Z,4.73
2023-03-11T09:35:27.131Z,4.07
2023-03-11T09:38:29.960Z,8.23
2023-03-11T09:41:47.894Z,4.83
2023-03-11T09:45:03.518Z,0.60
2023-03-11T09:48:16.783Z,5.53
2023-03-11T09:51:23.744Z,3.58
2023-03-11T09:54:28.895Z,1.50
2023-03-11T09:57:34.383Z,1.60
2023-03-11T10:00:37.774Z,4.43
2023-03-11T10:03:41.206Z,4.68
2023-03-11T10:06:47.074Z,1.90
2023-03-11T10:09:52.831Z,1.90
2023-03-11T10:13:01.898Z,2.60
2023-03-11T10:16:11.446Z,4.57
2023-03-11T10:19:21.361Z,4.20
2023-03-11T10:22:28.411Z,3.20
2023-03-11T10:25:33.439Z,1.10
2023-03-11T10:28:38.167Z,0.97
2023-03-11T10:31:44.170Z,2.13
2023-03-11T10:34:49.561Z,2.70
2023-03-11T10:37:55.834Z,3.77
2023-03-11T10:41:01.102Z,7.07
2023-03-11T10:44:07.159Z,2.50
2023-03-11T10:47:15.969Z,3.70
2023-03-11T10:50:20.339Z,2.30
2023-03-11T10:53:24.351Z,1.57
2023-03-11T10:56:31.922Z,2.23
2023-03-11T10:59:37.460Z,1.33
2023-03-11T11:02:43.706Z,0.80
2023-03-11T11:05:58.711Z,2.50
2023-03-11T11:09:16.641Z,3.80
2023-03-11T11:12:22.047Z,3.07
2023-03-11T11:15:27.585Z,2.00
2023-03-11T11:18:33.266Z,4.33
2023-03-11T11:21:38.296Z,4.13
2023-03-11T11:24:46.640Z,2.07
2023-03-11T11:27:56.052Z,1.47
2023-03-11T11:31:00.654Z,3.07
2023-03-11T11:34:03.615Z,1.13
2023-03-11T11:37:07.297Z,2.55
2023-03-11T11:40:23.072Z,1.03
2023-03-11T11:43:32.885Z,2.50
2023-03-11T11:46:39.362Z,1.90
2023-03-11T11:49:48.275Z,1.67
2023-03-11T11:52:53.831Z,1.40
2023-03-11T11:55:57.757Z,2.50
2023-03-11T11:59:00.544Z,6.40
2023-03-11T12:02:08.856Z,0.57
2023-03-11T12:05:14.708Z,2.40
2023-03-11T12:08:20.464Z,2.87
2023-03-11T12:11:27.939Z,2.60
2023-03-11T12:14:36.562Z,2.90
2023-03-11T12:17:42.550Z,2.63
2023-03-11T12:20:47.871Z,0.80
2023-03-11T12:23:58.937Z,3.33
2023-03-11T12:27:06.247Z,2.47
2023-03-11T12:30:15.343Z,2.30
2023-03-11T12:33:20.861Z,2.67
2023-03-11T12:36:25.801Z,2.10
2023-03-11T12:39:30.335Z,1.23
2023-03-11T12:42:41.368Z,4.67
2023-03-11T12:45:51.891Z,2.23
2023-03-11T12:49:12.853Z,7.63
2023-03-11T12:52:29.921Z,5.10
2023-03-11T12:55:37.393Z,2.23
2023-03-11T12:58:59.447Z,5.00
2023-03-11T13:02:13.080Z,1.40
2023-03-11T13:05:22.264Z,1.95
2023-03-11T13:08:26.165Z,3.63
2023-03-11T13:11:43.310Z,9.63
2023-03-11T13:14:47.573Z,2.17
2023-03-11T13:18:00.951Z,0.87
2023-03-11T13:21:04.640Z,2.50
2023-03-11T13:24:41.756Z,1.77
2023-03-11T13:27:47.254Z,4.83
2023-03-11T13:30:54.018Z,3.50
2023-03-11T13:33:57.888Z,2.63
2023-03-11T13:37:18.136Z,3.27
2023-03-11T13:40:30.502Z,1.43
2023-03-11T13:43:33.138Z,2.00
2023-03-11T13:46:39.359Z,3.93
2023-03-11T13:49:44.712Z,2.60
2023-03-11T13:52:49.073Z,2.17
2023-03-11T13:55:51.765Z,3.10
2023-03-11T13:58:54.431Z,3.08
2023-03-11T14:02:01.990Z,6.63
2023-03-11T14:05:07.895Z,2.57
2023-03-11T14:08:14.445Z,1.70
2023-03-11T14:11:18.365Z,5.23
2023-03-11T14:14:36.125Z,4.17
2023-03-11T14:17:40.167Z,0.77
2023-03-11T14:20:43.176Z,2.80
2023-03-11T14:23:47.715Z,3.08
2023-03-11T14:26:51.270Z,5.47
2023-03-11T14:33:00.228Z,2.93
2023-03-11T14:36:05.312Z,3.73
2023-03-11T14:39:23.637Z,2.60
2023-03-11T14:42:29.395Z,1.67
2023-03-11T14:45:34.037Z,2.87
2023-03-11T14:48:39.827Z,3.33
2023-03-11T14:51:42.558Z,6.20
2023-03-11T14:54:45.951Z,2.83
2023-03-11T14:57:50.408Z,3.13
2023-03-11T15:00:56.524Z,1.93
2023-03-11T15:04:04.045Z,3.07
2023-03-11T15:07:06.943Z,2.70
2023-03-11T15:10:11.131Z,2.92
2023-03-11T15:13:16.668Z,3.07
2023-03-11T15:16:30.401Z,1.13
2023-03-11T15:19:35.403Z,5.72
2023-03-11T15:22:39.656Z,4.40
2023-03-11T15:25:50.038Z,5.03
2023-03-11T15:28:58.613Z,2.63
2023-03-11T15:32:01.762Z,3.27
2023-03-11T15:35:15.310Z,5.47
2023-03-11T15:38:23.607Z,4.20
2023-03-11T15:41:26.119Z,3.20
2023-03-11T15:44:31.450Z,5.13
2023-03-11T15:47:35.906Z,3.07
2023-03-11T15:50:53.260Z,4.20
2023-03-11T15:53:56.527Z,3.00
2023-03-11T15:57:01.064Z,3.30
2023-03-11T16:00:05.127Z,4.43
2023-03-11T16:03:07.693Z,5.03
2023-03-11T16:06:11.520Z,9.63
2023-03-11T16:09:14.500Z,2.00
2023-03-11T16:12:18.296Z,7.57
2023-03-11T16:18:27.739Z,7.17
2023-03-11T16:21:35.260Z,3.30
2023-03-11T16:24:37.755Z,4.73
2023-03-11T16:27:40.482Z,6.17
2023-03-11T16:30:43.199Z,4.60
2023-03-11T16:33:45.810Z,3.30
2023-03-11T16:36:49.683Z,5.43
2023-03-11T16:39:52.635Z,3.83
2023-03-11T16:42:56.835Z,3.90
2023-03-11T16:45:59.275Z,1.73
2023-03-11T16:49:02.168Z,5.27
2023-03-11T16:52:06.493Z,4.45
2023-03-11T16:55:09.810Z,5.00
2023-03-11T16:58:12.492Z,2.28
2023-03-11T17:01:15.155Z,5.43
2023-03-11T17:04:18.706Z,5.33
2023-03-11T17:07:24.091Z,4.32
2023-03-11T17:10:28.066Z,4.67
2023-03-11T17:13:30.718Z,6.40
2023-03-11T17:16:35.388Z,3.47
2023-03-11T17:19:38.087Z,2.90
2023-03-11T17:22:41.990Z,3.83
2023-03-11T17:25:44.459Z,5.80
2023-03-11T17:28:47.793Z,5.00
2023-03-11T17:31:50.634Z,3.95
2023-03-11T17:34:53.394Z,3.15
2023-03-11T17:37:58.620Z,5.20
2023-03-11T17:41:01.243Z,8.37
2023-03-11T17:44:03.961Z,2.33
2023-03-11T17:47:06.768Z,3.13
2023-03-11T17:50:10.498Z,4.47
2023-03-11T17:53:14.498Z,4.70
2023-03-11T17:56:19.033Z,4.63
2023-03-11T17:59:21.534Z,4.13
2023-03-11T18:02:24.245Z,4.30
2023-03-11T18:05:26.892Z,3.07
2023-03-11T18:08:31.240Z,3.90
2023-03-11T18:11:34.133Z,2.97
2023-03-11T18:14:37.449Z,6.57
2023-03-11T18:17:39.936Z,3.30
2023-03-11T18:20:42.575Z,4.20
2023-03-11T18:23:46.654Z,4.33
2023-03-11T18:26:49.177Z,3.80
2023-03-11T18:29:52.051Z,2.83
2023-03-11T18:32:54.550Z,7.70
2023-03-11T18:35:57.135Z,4.60
2023-03-11T18:39:02.366Z,5.00
2023-03-11T18:42:05.761Z,6.67
2023-03-11T18:45:12.032Z,4.38
2023-03-11T18:48:14.539Z,3.20
2023-03-11T18:51:17.090Z,7.00
2023-03-11T18:54:21.269Z,4.47
2023-03-11T18:57:23.958Z,15.17
2023-03-11T19:00:27.098Z,10.17
2023-03-11T19:03:29.634Z,8.23
2023-03-11T19:06:32.343Z,7.63
2023-03-11T19:09:37.050Z,8.10
2023-03-11T19:12:39.966Z,4.53
2023-03-11T19:15:42.922Z,6.30
2023-03-11T19:18:45.593Z,10.80
2023-03-11T19:21:48.170Z,7.90
2023-03-11T19:24:54.271Z,11.10
2023-03-11T19:27:57.741Z,7.00
2023-03-11T19:31:00.598Z,12.48
2023-03-11T19:34:04.231Z,6.70
2023-03-11T19:37:09.189Z,6.60
2023-03-11T19:40:15.381Z,15.20
2023-03-11T19:43:19.214Z,7.70
2023-03-11T19:49:25.296Z,7.60
2023-03-11T19:52:27.781Z,12.57
2023-03-11T19:55:31.786Z,8.13
2023-03-11T19:58:35.903Z,9.27
2023-03-11T20:01:38.589Z,8.30
2023-03-11T20:04:43.215Z,9.90
2023-03-11T20:07:45.952Z,5.93
2023-03-11T20:10:51.182Z,8.83
2023-03-11T20:13:53.894Z,9.03
2023-03-11T20:16:56.573Z,9.03
2023-03-11T20:19:59.173Z,12.97
2023-03-11T20:23:02.589Z,9.47
2023-03-11T20:26:07.837Z,7.90
2023-03-11T20:29:10.489Z,9.83
2023-03-11T20:32:13.192Z,5.40
2023-03-11T20:35:17.873Z,10.07
2023-03-11T20:38:20.498Z,7.38
2023-03-11T20:41:26.036Z,9.63
2023-03-11T20:44:28.614Z,9.00
2023-03-11T20:47:31.173Z,8.17
2023-03-11T20:50:33.851Z,7.93
2023-03-11T20:53:36.338Z,11.17
2023-03-11T20:56:40.236Z,9.30
2023-03-11T21:02:45.680Z,13.33
2023-03-11T21:05:48.429Z,13.37
2023-03-11T21:08:51.069Z,6.73
2023-03-11T21:11:55.053Z,18.37
2023-03-11T21:14:57.655Z,18.53
2023-03-11T21:18:00.271Z,25.77
2023-03-11T21:21:03.828Z,21.60
2023-03-11T21:24:06.951Z,19.00
2023-03-11T21:27:10.939Z,18.80
2023-03-11T21:30:14.516Z,15.37
2023-03-11T21:33:17.614Z,15.68
2023-03-11T21:36:20.324Z,12.63
2023-03-11T21:39:22.859Z,21.77
2023-03-11T21:42:29.892Z,17.07
2023-03-11T21:45:32.499Z,15.40
2023-03-11T21:48:35.212Z,16.67
2023-03-11T21:51:37.964Z,17.00
2023-03-11T21:54:40.692Z,14.33
2023-03-11T21:57:44.545Z,13.60
2023-03-11T22:03:50.067Z,10.93
2023-03-11T22:06:52.609Z,7.45
2023-03-11T22:09:55.338Z,9.90
2023-03-11T22:12:59.456Z,14.05
2023-03-11T22:19:08.740Z,10.02
2023-03-11T22:22:11.395Z,9.50
2023-03-11T22:25:14.412Z,9.53
2023-03-11T22:28:18.202Z,15.27
2023-03-11T22:31:20.784Z,14.73
2023-03-11T22:34:23.544Z,12.03
2023-03-11T22:37:26.219Z,18.73
2023-03-11T22:40:28.919Z,13.87
2023-03-11T22:43:32.758Z,11.63
2023-03-11T22:46:35.336Z,10.30
2023-03-11T22:49:38.186Z,13.93
2023-03-11T22:52:40.796Z,10.73
2023-03-11T22:55:44.840Z,10.50
2023-03-11T22:58:48.683Z,8.87
2023-03-11T23:04:53.629Z,12.67
2023-03-11T23:07:56.113Z,11.87
2023-03-11T23:11:02.704Z,12.73
2023-03-11T23:14:06.561Z,11.50
2023-03-11T23:20:14.205Z,7.03
2023-03-11T23:23:16.706Z,13.30
2023-03-11T23:26:19.852Z,11.40
2023-03-11T23:29:23.765Z,13.48
2023-03-11T23:35:28.668Z,14.10
2023-03-11T23:38:31.172Z,6.47
2023-03-11T23:41:33.813Z,5.53
2023-03-11T23:44:37.671Z,8.00
2023-03-11T23:50:46.256Z,7.77
2023-03-11T23:53:48.862Z,14.43
2023-03-11T23:56:51.365Z,11.20
2023-03-11T23:59:55.254Z,9.23
